Аэропорт: Брест-2. Брест

ICAO: UMBB

METAR:
Информация по данной станции не доступна
METAR:
2021-04-21 14:00:00
TAF UMBB 211400Z 2115/2124 27005MPS 6000 BKN020 TEMPO 2115/2121 28007G12MPS 2100 -TSRA BR BKN007 SCT016CB